Pskem, Uzbekistan
Current Conditions -  °F | °C
As of 10:30 PM on Thursday 30 Oct 2014 (Local Time) from UAII Reporting Station
Smoke Smoke  
Wind Chill: 32°   Ceiling: Unl
Heat Index: 32°   Visibility: 1.8mi
Dew Point: 27°   Wind: 0mph
Humidity: 80%   Direction: NA
Pressure: 30.42"   Gusts: NA
Location:  41.92°N, 70.37°E
Report Text: UAII 301730Z 00000MPS 3000 BR FU NSC 00/M03 Q1030 R10/0///70TEMPO 1000 BR FU RMK QFE737/0983
Loading
Personal Weather Stations






























Interactive Weather Map
Tropical Storm Tracking
New forecast layout! Learn more

10-Day Weather Forecast

Advertisements
Track Severe Weather on mobile